Terminal Aerodrome Forecast
Issued by NWS

Home | Current Version | Previous Version | Text Only | Print | Product List | Glossary On
Versions: 1 2 3 4 5 6 7 8 9 10 11 12 13 14 15 16 17
365
FTUS46 KLOX 020242 AAB
TAFWJF
TAF AMD
KWJF 020242Z 0203/0224 25010KT P6SM FEW060 BKN100
     FM020800 VRB03KT P6SM BKN100
     FM021800 06008KT P6SM FEW060 SCT250=

USA.gov is the U.S. government's official web portal to all federal, state and local government web resources and services.